Time;durP1;ratioP1;P1;durP2;ratioP2;P2;SDS_P1;SDS_P2;PMS_P1;PMS_P2;Temp;Humidity;BMP_temperature;BMP_pressure;BME280_temperature;BME280_humidity;BME280_pressure;Samples;Min_cycle;Max_cycle;Signal;HPM_P1;HPM_P2
2023/10/08 00:01:19;;;;;;;1.67;1.37;;;;;;;17.34;43.28;96234.94;4413198;32;20196;-64
2023/10/08 00:03:50;;;;;;;1.50;0.87;;;;;;;17.41;42.00;96235.28;4414087;32;20187;-64
2023/10/08 00:06:34;;;;;;;1.17;0.80;;;;;;;17.41;43.25;96229.91;4416368;32;20259;-64
2023/10/08 00:09:20;;;;;;;0.80;0.80;;;;;;;17.43;42.95;96223.16;4414252;32;20285;-64
2023/10/08 00:11:52;;;;;;;1.20;1.20;;;;;;;17.48;43.63;96216.81;4408572;32;20228;-64
2023/10/08 00:14:43;;;;;;;0.97;0.97;;;;;;;17.47;42.99;96210.66;4384887;32;20176;-64
2023/10/08 00:17:10;;;;;;;1.33;1.23;;;;;;;17.47;43.31;96209.88;4406660;32;20206;-64
2023/10/08 00:19:38;;;;;;;6.63;1.63;;;;;;;17.49;43.41;96204.97;4412978;32;20236;-64
2023/10/08 00:22:09;;;;;;;5.47;1.27;;;;;;;17.51;42.61;96203.56;4404802;32;20188;-64
2023/10/08 00:24:40;;;;;;;0.73;0.73;;;;;;;17.53;43.84;96203.25;4394907;32;20296;-64
2023/10/08 00:27:08;;;;;;;4.07;1.47;;;;;;;17.53;43.73;96195.19;4376305;32;20275;-64
2023/10/08 00:29:34;;;;;;;3.00;1.60;;;;;;;17.60;42.58;96194.72;4414442;32;20210;-64
2023/10/08 00:32:12;;;;;;;1.97;0.67;;;;;;;17.63;42.90;96194.91;4390192;32;20184;-64
2023/10/08 00:34:42;;;;;;;1.47;1.00;;;;;;;17.62;42.97;96187.16;4379932;32;20210;-64
2023/10/08 00:37:14;;;;;;;15.93;1.90;;;;;;;17.59;42.91;96187.78;4369696;32;20184;-64
2023/10/08 00:39:41;;;;;;;1.40;1.20;;;;;;;17.65;44.01;96191.94;4421308;32;20183;-64
2023/10/08 00:42:28;;;;;;;0.30;0.30;;;;;;;17.68;43.31;96181.31;4394019;32;20184;-64
2023/10/08 00:44:55;;;;;;;1.23;1.13;;;;;;;17.74;42.90;96174.69;4387718;32;20228;-64
2023/10/08 00:47:26;;;;;;;1.33;1.23;;;;;;;17.81;42.99;96177.69;4382625;32;20283;-62
2023/10/08 00:50:07;;;;;;;1.03;1.03;;;;;;;17.85;42.99;96175.97;4390934;32;20261;-63
2023/10/08 00:53:17;;;;;;;0.87;0.87;;;;;;;17.87;43.14;96185.59;4391070;32;20356;-63
2023/10/08 00:55:32;;;;;;;1.80;1.13;;;;;;;17.93;42.74;96182.41;4398910;32;20259;-63
2023/10/08 00:58:09;;;;;;;0.50;0.50;;;;;;;17.90;42.88;96180.34;4400225;32;20244;-63
2023/10/08 01:00:39;;;;;;;0.50;0.50;;;;;;;17.99;43.89;96169.59;4381483;32;20254;-63
2023/10/08 01:03:14;;;;;;;0.33;0.33;;;;;;;18.02;42.25;96175.13;4400728;32;20188;-63
2023/10/08 01:05:48;;;;;;;2.53;1.87;;;;;;;18.09;42.47;96161.19;4393402;32;20186;-62
2023/10/08 01:11:00;;;;;;;1.17;1.13;;;;;;;18.08;43.27;96162.34;4402118;32;20287;-63
2023/10/08 01:13:36;;;;;;;3.37;1.53;;;;;;;18.09;42.22;96170.03;4390345;32;20180;-63
2023/10/08 01:16:04;;;;;;;0.80;0.77;;;;;;;18.14;42.58;96167.19;4407003;32;20220;-63
2023/10/08 01:18:32;;;;;;;0.50;0.50;;;;;;;18.12;42.79;96164.03;4409041;32;20237;-63
2023/10/08 01:21:06;;;;;;;0.43;0.43;;;;;;;18.08;42.77;96167.69;4406214;32;20184;-63
2023/10/08 01:23:33;;;;;;;1.27;1.13;;;;;;;18.14;42.91;96166.41;4428958;32;20187;-63
2023/10/08 01:26:22;;;;;;;1.03;1.03;;;;;;;18.05;42.30;96160.28;4403126;32;20239;-63
2023/10/08 01:28:56;;;;;;;1.10;0.90;;;;;;;18.09;41.58;96161.19;4412147;32;20259;-63
2023/10/08 01:31:25;;;;;;;0.60;0.60;;;;;;;18.12;43.27;96168.63;4411839;32;20180;-63
2023/10/08 01:33:56;;;;;;;0.87;0.87;;;;;;;18.16;42.89;96170.34;4407819;32;20207;-63
2023/10/08 01:36:25;;;;;;;1.10;1.00;;;;;;;18.14;42.30;96161.03;4422535;32;20222;-63
2023/10/08 01:38:54;;;;;;;0.60;0.60;;;;;;;18.19;42.47;96166.25;4422771;32;20187;-63
2023/10/08 01:41:30;;;;;;;0.53;0.53;;;;;;;18.20;41.99;96159.75;4412738;32;20192;-63
2023/10/08 01:43:59;;;;;;;1.20;1.10;;;;;;;18.24;42.54;96159.91;4402235;32;20254;-63
2023/10/08 01:46:28;;;;;;;0.63;0.60;;;;;;;18.23;41.66;96153.75;4375209;32;20203;-63
2023/10/08 01:49:06;;;;;;;0.90;0.90;;;;;;;18.25;41.40;96156.91;4407667;32;20250;-63
2023/10/08 01:51:41;;;;;;;1.37;1.13;;;;;;;18.26;41.63;96158.47;4418470;32;20250;-63
2023/10/08 01:54:10;;;;;;;1.27;1.20;;;;;;;18.27;43.20;96157.38;4381052;32;20176;-63
2023/10/08 01:56:53;;;;;;;0.47;0.47;;;;;;;18.27;42.49;96154.69;4405432;32;20202;-63
2023/10/08 01:59:18;;;;;;;0.73;0.73;;;;;;;18.29;41.92;96151.69;4414495;32;20215;-63
2023/10/08 02:01:45;;;;;;;0.53;0.53;;;;;;;18.22;42.95;96146.78;4388883;32;20208;-62
2023/10/08 02:04:12;;;;;;;1.73;1.00;;;;;;;18.32;42.63;96151.81;4360449;32;20198;-63
2023/10/08 02:06:39;;;;;;;1.00;1.00;;;;;;;18.28;43.67;96145.53;4409869;32;20202;-64
2023/10/08 02:09:07;;;;;;;1.00;1.00;;;;;;;18.28;41.84;96142.84;4416769;32;20203;-63
2023/10/08 02:11:50;;;;;;;0.87;0.87;;;;;;;18.40;40.77;96140.25;4412159;32;20210;-63
2023/10/08 02:14:16;;;;;;;0.67;0.67;;;;;;;18.35;41.35;96135.03;4384151;32;20207;-63
2023/10/08 02:16:43;;;;;;;1.30;1.20;;;;;;;18.36;41.10;96146.56;4384593;32;20202;-63
2023/10/08 02:19:10;;;;;;;1.30;1.30;;;;;;;18.36;41.20;96154.63;4389033;32;20188;-63
2023/10/08 02:21:40;;;;;;;0.87;0.87;;;;;;;18.37;40.92;96148.16;4398068;32;20221;-63
2023/10/08 02:24:08;;;;;;;0.67;0.63;;;;;;;18.32;41.56;96143.75;4400306;32;20244;-63
2023/10/08 02:26:34;;;;;;;0.80;0.80;;;;;;;18.35;41.57;96145.78;4378677;32;25284;-63
2023/10/08 02:29:06;;;;;;;1.07;1.00;;;;;;;18.33;41.16;96141.84;4399807;32;20278;-63
2023/10/08 02:31:32;;;;;;;3.80;1.07;;;;;;;18.37;41.48;96132.81;4405190;32;20188;-62
2023/10/08 02:33:59;;;;;;;0.87;0.87;;;;;;;18.34;41.96;96133.47;4410135;32;20194;-63
2023/10/08 02:36:40;;;;;;;1.63;1.23;;;;;;;18.27;42.06;96133.19;4423392;32;20188;-63
2023/10/08 02:39:14;;;;;;;0.77;0.77;;;;;;;18.33;41.42;96131.88;4394771;32;20250;-63
2023/10/08 02:41:46;;;;;;;0.77;0.73;;;;;;;18.32;41.16;96133.00;4372138;32;20196;-63
2023/10/08 02:44:15;;;;;;;0.63;0.63;;;;;;;18.23;42.22;96126.88;4390131;32;20230;-63
2023/10/08 02:46:48;;;;;;;0.73;0.73;;;;;;;18.22;42.64;96130.69;4359528;32;20211;-63
2023/10/08 02:49:20;;;;;;;1.20;1.17;;;;;;;18.28;42.07;96134.00;4392758;32;20188;-62
2023/10/08 02:51:53;;;;;;;1.50;1.37;;;;;;;18.26;43.46;96130.84;4396440;32;20251;-63
2023/10/08 02:54:24;;;;;;;0.77;0.77;;;;;;;18.27;42.08;96130.50;4396548;32;20231;-63
2023/10/08 02:56:55;;;;;;;1.30;1.20;;;;;;;18.26;42.40;96120.87;4396430;32;20184;-63
2023/10/08 02:59:24;;;;;;;0.93;0.83;;;;;;;18.26;42.74;96115.50;4413971;32;20192;-63
2023/10/08 03:01:55;;;;;;;1.27;1.20;;;;;;;18.30;41.92;96119.09;4400069;32;20205;-63
2023/10/08 03:04:23;;;;;;;1.63;1.17;;;;;;;18.23;43.06;96120.72;4413879;32;20228;-63
2023/10/08 03:06:50;;;;;;;1.50;1.27;;;;;;;18.18;43.56;96108.25;4398582;32;20223;-63
2023/10/08 03:09:23;;;;;;;1.00;1.00;;;;;;;18.23;42.42;96107.28;4412308;32;20187;-63
2023/10/08 03:11:51;;;;;;;0.87;0.63;;;;;;;18.22;43.15;96113.78;4401362;32;20197;-62
2023/10/08 03:14:26;;;;;;;0.80;0.80;;;;;;;18.19;42.90;96112.53;4406307;32;20202;-63
2023/10/08 03:17:06;;;;;;;0.73;0.73;;;;;;;18.15;43.95;96108.91;4411002;32;20194;-63
2023/10/08 03:19:35;;;;;;;1.23;0.87;;;;;;;18.14;43.46;96115.38;4401845;32;20279;-63
2023/10/08 03:22:05;;;;;;;0.90;0.90;;;;;;;18.15;43.27;96103.53;4408595;32;20278;-63
2023/10/08 03:24:41;;;;;;;0.83;0.80;;;;;;;18.15;44.20;96116.94;4417695;32;20215;-63
2023/10/08 03:27:15;;;;;;;5.10;2.67;;;;;;;18.15;44.06;96109.69;4422300;32;20190;-63
2023/10/08 03:29:41;;;;;;;0.40;0.40;;;;;;;18.15;43.21;96100.84;4417517;32;20294;-63
2023/10/08 03:32:18;;;;;;;7.30;1.00;;;;;;;18.13;44.22;96103.06;4414713;32;20233;-63
2023/10/08 03:34:49;;;;;;;0.67;0.67;;;;;;;18.18;43.34;96102.88;4417083;32;20223;-62
2023/10/08 03:37:20;;;;;;;1.33;0.93;;;;;;;18.16;43.17;96105.09;4407250;32;20259;-63
2023/10/08 03:42:34;;;;;;;0.47;0.47;;;;;;;18.12;43.28;96104.16;4405429;32;20206;-63
2023/10/08 03:45:10;;;;;;;0.80;0.80;;;;;;;18.14;43.04;96104.63;4414280;32;20222;-63
2023/10/08 03:47:39;;;;;;;0.87;0.73;;;;;;;18.15;42.95;96103.53;4411812;32;20194;-63
2023/10/08 03:50:16;;;;;;;2.30;1.47;;;;;;;18.10;43.04;96099.09;4382805;32;20243;-63
2023/10/08 03:52:43;;;;;;;0.50;0.50;;;;;;;18.08;43.56;96103.25;4420098;32;20180;-64
2023/10/08 03:57:48;;;;;;;1.47;1.30;;;;;;;18.04;44.28;96108.47;4409975;32;20186;-63
2023/10/08 04:00:28;;;;;;;1.17;1.17;;;;;;;18.06;43.72;96102.78;4362814;32;20188;-62
2023/10/08 04:02:55;;;;;;;1.17;0.93;;;;;;;18.11;43.63;96091.84;4370209;32;20230;-63
2023/10/08 04:05:40;;;;;;;1.13;1.13;;;;;;;18.11;43.69;96098.00;4414594;32;20183;-64
2023/10/08 04:08:24;;;;;;;1.00;0.83;;;;;;;18.08;43.51;96092.50;4414027;32;20187;-64
2023/10/08 04:13:48;;;;;;;0.83;0.80;;;;;;;18.08;43.37;96097.87;4361788;32;20196;-63
2023/10/08 04:16:18;;;;;;;0.77;0.77;;;;;;;18.09;43.48;96102.12;4404656;32;20244;-62
2023/10/08 04:18:50;;;;;;;0.93;0.90;;;;;;;18.08;43.23;96103.25;4413091;32;20199;-63
2023/10/08 04:21:20;;;;;;;1.40;1.30;;;;;;;18.10;43.15;96106.37;4407122;32;20176;-64
2023/10/08 04:23:46;;;;;;;0.60;0.60;;;;;;;18.09;43.32;96099.44;4405187;32;20195;-63
2023/10/08 04:26:12;;;;;;;2.87;1.40;;;;;;;18.09;43.20;96102.12;4394280;32;20210;-64
2023/10/08 04:28:41;;;;;;;0.93;0.87;;;;;;;18.08;43.54;96104.00;4422148;32;20187;-64
2023/10/08 04:31:15;;;;;;;0.63;0.63;;;;;;;18.06;43.62;96106.25;4397549;32;20199;-64
2023/10/08 04:33:45;;;;;;;1.83;0.90;;;;;;;18.12;42.98;96104.16;4412873;32;20195;-64
2023/10/08 04:36:17;;;;;;;0.93;0.93;;;;;;;18.14;43.04;96107.31;4420488;32;20188;-64
2023/10/08 04:38:45;;;;;;;0.80;0.80;;;;;;;18.10;43.57;96101.00;4402837;32;20172;-62
2023/10/08 04:41:11;;;;;;;0.83;0.83;;;;;;;18.16;43.35;96099.72;4378328;32;20241;-64
2023/10/08 04:43:42;;;;;;;1.43;1.00;;;;;;;18.11;43.55;96097.22;4377638;32;20213;-64
2023/10/08 04:47:09;;;;;;;1.80;1.23;;;;;;;18.10;43.33;96095.62;4410655;32;20202;-64
2023/10/08 04:49:07;;;;;;;1.30;1.07;;;;;;;18.08;43.67;96097.87;4389190;32;20275;-64
2023/10/08 04:51:43;;;;;;;0.60;0.60;;;;;;;18.06;44.06;96092.81;4406872;32;20211;-64
2023/10/08 04:54:09;;;;;;;0.93;0.93;;;;;;;18.03;44.08;96090.00;4421083;32;20199;-64
2023/10/08 04:56:34;;;;;;;1.20;0.73;;;;;;;18.05;43.81;96096.63;4420600;32;20180;-64
2023/10/08 04:59:00;;;;;;;0.73;0.73;;;;;;;18.07;43.75;96097.09;4417268;32;20192;-64
2023/10/08 05:01:38;;;;;;;0.80;0.80;;;;;;;18.06;43.97;96100.09;4420136;32;20184;-64
2023/10/08 05:20:19;;;;;;;4.60;1.13;;;;;;;18.01;43.87;96111.78;4420990;32;20203;-61
2023/10/08 05:22:47;;;;;;;2.80;0.77;;;;;;;18.01;44.49;96113.69;4422203;32;20227;-63
2023/10/08 05:30:28;;;;;;;4.00;1.17;;;;;;;18.07;43.84;96121.25;4411999;32;20192;-62
2023/10/08 05:38:23;;;;;;;1.43;1.00;;;;;;;18.10;42.94;96139.41;4408841;32;20196;-63
2023/10/08 05:52:11;;;;;;;0.77;0.70;;;;;;;18.29;41.80;96168.56;4421484;32;20188;-63
2023/10/08 06:00:16;;;;;;;1.23;1.13;;;;;;;18.53;40.73;96205.63;4415543;32;20203;-63
2023/10/08 06:05:26;;;;;;;2.63;1.63;;;;;;;18.43;41.20;96216.75;4424247;32;20393;-63
2023/10/08 06:13:06;;;;;;;2.00;1.07;;;;;;;18.25;41.84;96236.72;4415484;32;20187;-63
2023/10/08 06:15:51;;;;;;;1.33;1.23;;;;;;;18.20;42.79;96232.28;4421290;32;20187;-63
2023/10/08 06:18:18;;;;;;;0.50;0.50;;;;;;;18.21;42.63;96231.19;4421175;32;20192;-63
2023/10/08 06:20:45;;;;;;;0.83;0.83;;;;;;;18.16;42.99;96234.03;4419457;32;20206;-63
2023/10/08 06:23:13;;;;;;;0.67;0.67;;;;;;;18.04;43.40;96231.22;4419664;32;20191;-64
2023/10/08 06:25:45;;;;;;;0.30;0.30;;;;;;;18.07;43.49;96235.94;4415665;32;20205;-64
2023/10/08 06:28:20;;;;;;;0.63;0.60;;;;;;;18.12;43.46;96233.88;4416629;32;20193;-63
2023/10/08 06:30:46;;;;;;;1.47;0.90;;;;;;;18.07;43.21;96239.44;4407203;32;20179;-63
2023/10/08 06:33:13;;;;;;;0.90;0.90;;;;;;;18.04;43.18;96244.63;4409032;32;20214;-64
2023/10/08 06:35:44;;;;;;;0.80;0.77;;;;;;;18.11;42.32;96250.28;4419362;32;20192;-64
2023/10/08 06:38:10;;;;;;;1.67;1.23;;;;;;;17.98;43.96;96244.00;4410590;32;20187;-64
2023/10/08 06:43:45;;;;;;;1.40;0.97;;;;;;;17.97;44.15;96237.06;4410683;32;20211;-63
2023/10/08 06:45:57;;;;;;;1.30;1.30;;;;;;;17.94;45.37;96231.53;4400633;32;20239;-64
2023/10/08 06:48:24;;;;;;;1.93;1.57;;;;;;;17.76;44.85;96228.06;4422112;32;20211;-64
2023/10/08 06:50:51;;;;;;;0.67;0.67;;;;;;;17.79;45.36;96230.13;4423356;32;20262;-63
2023/10/08 06:53:21;;;;;;;0.90;0.90;;;;;;;17.85;44.39;96226.19;4418771;32;20235;-63
2023/10/08 06:55:48;;;;;;;4.60;1.40;;;;;;;17.84;45.22;96222.69;4413431;32;20358;-63
2023/10/08 06:58:14;;;;;;;5.87;1.37;;;;;;;17.80;45.57;96227.13;4420442;32;20248;-62
2023/10/08 07:00:46;;;;;;;1.93;1.30;;;;;;;17.80;45.68;96229.81;4414572;32;20188;-64
2023/10/08 07:03:15;;;;;;;0.40;0.40;;;;;;;17.83;45.25;96226.50;4422562;32;20225;-63
2023/10/08 07:05:59;;;;;;;0.70;0.70;;;;;;;17.82;45.87;96235.66;4422006;32;20215;-64
2023/10/08 07:08:31;;;;;;;0.43;0.43;;;;;;;17.88;45.63;96236.25;4412535;32;20183;-64
2023/10/08 07:10:58;;;;;;;0.97;0.97;;;;;;;17.90;45.89;96235.94;4423113;32;20184;-64
2023/10/08 07:13:24;;;;;;;0.37;0.37;;;;;;;17.86;45.54;96233.13;4419857;32;20179;-64
2023/10/08 07:15:50;;;;;;;1.93;1.20;;;;;;;17.84;46.00;96221.91;4412372;32;20237;-63
2023/10/08 07:18:24;;;;;;;0.57;0.57;;;;;;;17.94;46.64;96228.84;4413415;32;20184;-63
2023/10/08 07:20:53;;;;;;;0.77;0.77;;;;;;;17.90;46.11;96230.56;4422321;32;20238;-63
2023/10/08 07:23:19;;;;;;;1.20;1.10;;;;;;;17.97;47.14;96238.94;4417606;32;20184;-64
2023/10/08 07:26:17;;;;;;;0.57;0.57;;;;;;;18.01;46.16;96232.62;4409607;32;20188;-63
2023/10/08 07:28:44;;;;;;;0.57;0.57;;;;;;;18.02;46.76;96233.41;4420821;32;20179;-64
2023/10/08 07:31:22;;;;;;;2.40;1.73;;;;;;;17.98;47.11;96227.09;4413028;32;20184;-64
2023/10/08 07:33:58;;;;;;;3.83;1.20;;;;;;;18.00;47.94;96220.31;4420622;32;20184;-64
2023/10/08 07:36:27;;;;;;;3.50;1.10;;;;;;;18.07;46.95;96225.22;4410779;32;20187;-64
2023/10/08 07:38:53;;;;;;;1.00;0.90;;;;;;;18.14;47.74;96222.81;4421226;32;20199;-64
2023/10/08 07:41:22;;;;;;;0.90;0.90;;;;;;;18.22;47.43;96211.25;4418878;32;20199;-63
2023/10/08 07:43:58;;;;;;;0.97;0.97;;;;;;;18.34;46.43;96216.75;4406543;32;20181;-63
2023/10/08 07:46:26;;;;;;;1.23;1.23;;;;;;;18.36;47.27;96211.84;4405501;32;20197;-63
2023/10/08 07:48:54;;;;;;;1.90;1.80;;;;;;;18.42;47.38;96210.56;4405646;32;20251;-64
2023/10/08 07:51:23;;;;;;;2.83;2.60;;;;;;;18.46;47.30;96216.09;4416904;32;20256;-63
2023/10/08 07:53:55;;;;;;;16.57;8.20;;;;;;;18.49;47.57;96210.88;4420694;32;20247;-63
2023/10/08 07:56:24;;;;;;;14.03;9.83;;;;;;;18.52;47.62;96223.66;4421455;32;20224;-64
2023/10/08 07:58:56;;;;;;;2.33;2.13;;;;;;;18.55;48.31;96217.62;4417629;32;20253;-64
2023/10/08 08:01:24;;;;;;;4.53;2.50;;;;;;;18.51;48.22;96230.13;4419517;32;20184;-64
2023/10/08 08:03:50;;;;;;;2.17;2.07;;;;;;;18.59;47.77;96228.56;4419520;32;20242;-64
2023/10/08 08:06:15;;;;;;;1.80;1.70;;;;;;;18.58;50.08;96239.59;4411691;32;20233;-63
2023/10/08 08:08:41;;;;;;;8.57;3.20;;;;;;;18.62;50.02;96245.94;4410887;32;20187;-65
2023/10/08 08:11:11;;;;;;;4.87;4.47;;;;;;;18.52;47.49;96237.09;4421432;32;20179;-65
2023/10/08 08:13:43;;;;;;;1.47;1.37;;;;;;;18.63;48.83;96231.41;4419929;32;20171;-65
2023/10/08 08:16:20;;;;;;;9.63;8.40;;;;;;;18.62;48.30;96227.94;4405106;32;20188;-65
2023/10/08 08:18:48;;;;;;;1.67;1.57;;;;;;;18.63;47.35;96231.41;4405227;32;20188;-65
2023/10/08 08:21:15;;;;;;;6.63;5.87;;;;;;;18.66;47.61;96222.69;4420867;32;20194;-64
2023/10/08 08:23:50;;;;;;;2.30;2.10;;;;;;;18.72;47.93;96222.19;4424871;32;20179;-64
2023/10/08 08:26:29;;;;;;;1.10;1.00;;;;;;;18.67;47.77;96222.38;4417352;32;20171;-64
2023/10/08 08:29:03;;;;;;;3.73;2.47;;;;;;;18.70;47.97;96224.44;4418506;32;20180;-64
2023/10/08 08:31:32;;;;;;;1.73;1.63;;;;;;;18.79;48.87;96232.44;4414920;32;20187;-64
2023/10/08 08:34:17;;;;;;;1.07;1.00;;;;;;;18.79;47.70;96235.91;4416077;32;20206;-64
2023/10/08 08:36:46;;;;;;;0.83;0.83;;;;;;;18.81;48.32;96233.69;4415822;32;20192;-64
2023/10/08 08:39:17;;;;;;;1.63;1.13;;;;;;;18.78;48.25;96242.41;4414301;32;20232;-64
2023/10/08 08:41:48;;;;;;;0.90;0.90;;;;;;;18.75;48.48;96239.56;4407225;32;20202;-64
2023/10/08 08:44:14;;;;;;;0.70;0.70;;;;;;;18.71;49.31;96246.69;4411943;32;20196;-62
2023/10/08 08:46:40;;;;;;;1.20;0.90;;;;;;;18.74;47.91;96248.75;4418130;32;20260;-64
2023/10/08 08:49:08;;;;;;;1.17;1.07;;;;;;;18.75;48.92;96248.44;4411284;32;20211;-64
2023/10/08 08:51:35;;;;;;;0.83;0.83;;;;;;;18.76;49.02;96257.28;4418881;32;20203;-64
2023/10/08 08:54:06;;;;;;;0.83;0.83;;;;;;;18.76;49.50;96251.91;4419556;32;20230;-64
2023/10/08 08:56:34;;;;;;;1.27;1.17;;;;;;;18.72;50.00;96246.38;4410007;32;20196;-64
2023/10/08 08:59:00;;;;;;;1.60;1.33;;;;;;;18.68;50.36;96250.06;4412749;32;20243;-64
2023/10/08 09:01:27;;;;;;;2.83;1.53;;;;;;;18.72;50.08;96248.28;4420700;32;20191;-64
2023/10/08 09:04:00;;;;;;;1.37;1.37;;;;;;;18.74;50.44;96241.47;4406214;32;20179;-64
2023/10/08 09:06:26;;;;;;;1.57;1.47;;;;;;;18.76;50.42;96241.16;4415521;32;20180;-64
2023/10/08 09:08:55;;;;;;;1.20;1.10;;;;;;;18.71;51.14;96227.87;4408846;32;20187;-63
2023/10/08 09:11:20;;;;;;;0.97;0.90;;;;;;;18.68;50.60;96223.97;4411190;32;20258;-64
2023/10/08 09:13:46;;;;;;;1.10;1.10;;;;;;;18.73;51.13;96225.66;4419235;32;20188;-63
2023/10/08 09:16:13;;;;;;;1.40;1.30;;;;;;;18.75;51.18;96213.47;4422152;32;20214;-64
2023/10/08 09:18:41;;;;;;;1.10;0.90;;;;;;;18.78;50.48;96220.09;4422017;32;20271;-64
2023/10/08 09:21:10;;;;;;;1.87;1.53;;;;;;;18.81;51.51;96224.84;4421885;32;20179;-64
2023/10/08 09:23:43;;;;;;;3.13;1.40;;;;;;;18.87;50.65;96232.41;4414181;32;20200;-64
2023/10/08 09:26:09;;;;;;;1.37;1.27;;;;;;;18.95;51.48;96233.47;4411615;32;20285;-64
2023/10/08 09:28:38;;;;;;;1.20;1.10;;;;;;;18.91;51.63;96243.31;4420514;32;20184;-64
2023/10/08 09:31:04;;;;;;;4.00;3.67;;;;;;;18.96;51.76;96245.81;4408770;32;20320;-64
2023/10/08 09:33:30;;;;;;;2.10;1.50;;;;;;;18.96;50.64;96251.19;4405355;32;20219;-64
2023/10/08 09:35:57;;;;;;;1.00;1.00;;;;;;;18.97;51.44;96258.16;4410848;32;20269;-64
2023/10/08 09:38:23;;;;;;;1.07;0.60;;;;;;;19.01;52.04;96269.03;4417268;32;20184;-63
2023/10/08 09:40:49;;;;;;;1.60;1.50;;;;;;;19.01;50.04;96260.97;4423144;32;20222;-64
2023/10/08 09:43:16;;;;;;;3.60;1.03;;;;;;;19.01;51.55;96264.47;4413299;32;20200;-63
2023/10/08 09:45:51;;;;;;;1.27;0.90;;;;;;;19.05;52.23;96273.47;4418196;32;20229;-64
2023/10/08 09:48:19;;;;;;;10.47;1.50;;;;;;;19.07;51.54;96273.13;4419553;32;20188;-64
2023/10/08 09:50:46;;;;;;;1.77;0.80;;;;;;;19.12;50.96;96270.28;4422511;32;20192;-63
2023/10/08 09:53:22;;;;;;;1.27;1.17;;;;;;;19.17;51.07;96273.53;4424239;32;20201;-64
2023/10/08 09:55:54;;;;;;;1.53;1.27;;;;;;;19.26;50.94;96275.41;4420727;32;20262;-63
2023/10/08 09:58:22;;;;;;;3.70;1.30;;;;;;;19.26;51.30;96286.19;4414773;32;20188;-64
2023/10/08 10:00:48;;;;;;;1.37;1.03;;;;;;;19.38;52.99;96287.06;4424298;32;20180;-64
2023/10/08 10:03:14;;;;;;;2.00;1.77;;;;;;;19.42;50.69;96293.38;4422569;32;20180;-62
2023/10/08 10:05:42;;;;;;;2.33;1.70;;;;;;;19.49;49.97;96301.72;4426170;32;20214;-64
2023/10/08 10:08:09;;;;;;;0.93;0.93;;;;;;;19.61;49.33;96297.56;4423777;32;20188;-64
2023/10/08 10:10:38;;;;;;;2.67;0.73;;;;;;;19.63;49.90;96301.50;4416591;32;20184;-64
2023/10/08 10:13:06;;;;;;;1.33;1.23;;;;;;;19.60;50.08;96312.91;4422490;32;20232;-64
2023/10/08 10:15:34;;;;;;;2.40;1.30;;;;;;;19.65;48.97;96304.66;4421725;32;20197;-64
2023/10/08 10:18:13;;;;;;;2.67;1.27;;;;;;;19.70;48.75;96304.47;4422463;32;20183;-64
2023/10/08 10:20:51;;;;;;;3.50;1.80;;;;;;;19.78;49.07;96316.28;4422795;32;20180;-64
2023/10/08 10:23:42;;;;;;;0.70;0.67;;;;;;;19.79;48.65;96305.19;4416992;32;20218;-63
2023/10/08 10:26:31;;;;;;;0.63;0.63;;;;;;;19.72;50.83;96304.16;4422848;32;20198;-64
2023/10/08 10:29:14;;;;;;;0.97;0.97;;;;;;;19.67;51.27;96302.44;4417788;32;20239;-64
2023/10/08 10:31:58;;;;;;;2.93;0.77;;;;;;;19.59;51.84;96311.34;4409999;32;20208;-63
2023/10/08 10:34:27;;;;;;;0.87;0.87;;;;;;;19.58;52.64;96315.16;4417786;32;20184;-63
2023/10/08 10:36:58;;;;;;;1.13;1.07;;;;;;;19.54;52.24;96314.22;4411441;32;20208;-63
2023/10/08 10:39:28;;;;;;;2.30;1.33;;;;;;;19.50;52.48;96321.38;4410701;32;20191;-63
2023/10/08 10:42:00;;;;;;;0.63;0.63;;;;;;;19.53;53.09;96320.75;4422262;32;20220;-63
2023/10/08 10:44:27;;;;;;;0.80;0.80;;;;;;;19.50;51.59;96319.47;4412373;32;20188;-63
2023/10/08 10:47:26;;;;;;;5.37;4.33;;;;;;;19.51;52.94;96314.88;4412535;32;20237;-63
2023/10/08 10:49:53;;;;;;;1.90;1.57;;;;;;;19.49;52.98;96319.78;4409084;32;20212;-62
2023/10/08 10:52:44;;;;;;;3.37;2.07;;;;;;;19.49;52.31;96320.56;4421613;32;20210;-63
2023/10/08 10:55:22;;;;;;;4.87;1.83;;;;;;;19.46;52.67;96313.13;4423234;32;20192;-63
2023/10/08 10:57:56;;;;;;;0.83;0.83;;;;;;;19.47;53.53;96311.22;4412744;32;20196;-63
2023/10/08 11:01:23;;;;;;;1.47;1.37;;;;;;;19.40;53.08;96306.34;4418410;32;20191;-63
2023/10/08 11:03:16;;;;;;;0.80;0.40;;;;;;;19.41;53.35;96301.75;4412062;32;20212;-62
2023/10/08 11:05:51;;;;;;;1.50;1.23;;;;;;;19.40;53.34;96292.09;4409633;32;20196;-63
2023/10/08 11:08:22;;;;;;;1.20;1.07;;;;;;;19.48;53.71;96304.75;4415845;32;20244;-63
2023/10/08 11:10:51;;;;;;;2.43;1.23;;;;;;;19.44;52.92;96298.41;4422758;32;20183;-63
2023/10/08 11:13:28;;;;;;;0.70;0.70;;;;;;;19.39;53.20;96294.00;4423065;32;20192;-63
2023/10/08 11:15:54;;;;;;;3.70;1.80;;;;;;;19.35;54.85;96289.59;4411243;32;20187;-63
2023/10/08 11:18:21;;;;;;;1.87;1.33;;;;;;;19.32;54.95;96279.50;4416203;32;20192;-63
2023/10/08 11:21:02;;;;;;;1.87;1.33;;;;;;;19.30;55.62;96277.12;4411756;32;20192;-63
2023/10/08 11:23:36;;;;;;;1.60;1.40;;;;;;;19.34;54.88;96288.00;4428120;32;20246;-63
2023/10/08 11:26:04;;;;;;;3.00;2.00;;;;;;;19.32;55.67;96279.50;4405741;32;20210;-63
2023/10/08 11:28:43;;;;;;;1.50;1.33;;;;;;;19.30;55.38;96282.53;4412365;32;20195;-63
2023/10/08 11:31:13;;;;;;;1.23;0.57;;;;;;;19.35;54.96;96273.44;4421227;32;20176;-63
2023/10/08 11:33:55;;;;;;;1.17;1.07;;;;;;;19.33;54.98;96275.69;4410928;32;20255;-63
2023/10/08 11:36:27;;;;;;;1.60;1.23;;;;;;;19.34;55.13;96286.12;4406765;32;20191;-64
2023/10/08 11:39:06;;;;;;;1.00;1.00;;;;;;;19.38;55.96;96295.13;4421617;32;20175;-63
2023/10/08 11:41:42;;;;;;;0.67;0.67;;;;;;;19.33;55.74;96287.22;4420448;32;20202;-64
2023/10/08 11:44:13;;;;;;;1.80;1.70;;;;;;;19.33;56.07;96276.47;4412806;32;20248;-64
2023/10/08 11:46:38;;;;;;;2.00;1.37;;;;;;;19.32;56.44;96280.28;4405506;32;20194;-64
2023/10/08 11:49:07;;;;;;;1.03;1.03;;;;;;;19.40;56.43;96270.56;4406914;32;20263;-64
2023/10/08 11:51:34;;;;;;;7.90;1.97;;;;;;;19.36;56.56;96270.44;4415697;32;20188;-64
2023/10/08 11:54:05;;;;;;;2.13;1.00;;;;;;;19.39;56.32;96267.09;4411744;32;20236;-64
2023/10/08 11:56:33;;;;;;;0.73;0.73;;;;;;;19.43;56.66;96269.94;4419358;32;20243;-64
2023/10/08 11:59:01;;;;;;;1.10;1.10;;;;;;;19.41;56.16;96277.53;4408867;32;20187;-64
2023/10/08 12:01:27;;;;;;;0.83;0.80;;;;;;;19.45;56.24;96281.94;4419324;32;20218;-63
2023/10/08 12:03:57;;;;;;;1.03;0.90;;;;;;;19.43;56.38;96273.41;4419144;32;20187;-63
2023/10/08 12:06:24;;;;;;;1.50;1.43;;;;;;;19.52;55.14;96276.88;4419656;32;20207;-63
2023/10/08 12:08:53;;;;;;;1.63;1.20;;;;;;;19.55;54.54;96272.72;4406644;32;20176;-63
2023/10/08 12:11:19;;;;;;;1.50;1.47;;;;;;;19.47;54.98;96263.56;4409589;32;20176;-63
2023/10/08 12:13:44;;;;;;;1.70;1.40;;;;;;;19.47;55.62;96268.16;4417938;32;20175;-63
2023/10/08 12:16:23;;;;;;;1.23;1.23;;;;;;;19.45;55.46;96265.00;4421549;32;20184;-64
2023/10/08 12:18:53;;;;;;;1.50;0.73;;;;;;;19.41;56.98;96266.78;4419958;32;20178;-63
2023/10/08 12:21:19;;;;;;;7.10;1.30;;;;;;;19.42;55.97;96265.66;4413902;32;20191;-63
2023/10/08 12:23:49;;;;;;;0.90;0.90;;;;;;;19.43;56.53;96268.03;4418394;32;20191;-63
2023/10/08 12:26:15;;;;;;;1.70;1.13;;;;;;;19.42;55.23;96268.34;4420564;32;20183;-63
2023/10/08 12:28:44;;;;;;;1.57;1.30;;;;;;;19.41;55.44;96266.78;4421862;32;20206;-64
2023/10/08 12:31:11;;;;;;;0.50;0.50;;;;;;;19.52;54.74;96276.09;4420309;32;20221;-64
2023/10/08 12:33:37;;;;;;;1.53;1.10;;;;;;;19.51;54.68;96272.59;4419618;32;20183;-64
2023/10/08 12:36:12;;;;;;;0.70;0.70;;;;;;;19.44;55.27;96272.28;4414397;32;20203;-63
2023/10/08 12:38:41;;;;;;;2.97;2.77;;;;;;;19.41;55.44;96269.47;4412757;32;20210;-63
2023/10/08 12:41:12;;;;;;;1.77;1.57;;;;;;;19.43;55.36;96272.63;4418621;32;20184;-64
2023/10/08 12:43:44;;;;;;;2.50;2.10;;;;;;;19.36;55.52;96275.03;4403532;32;20184;-64
2023/10/08 12:46:16;;;;;;;2.63;1.40;;;;;;;19.38;55.55;96272.81;4403925;32;20267;-64
2023/10/08 12:48:43;;;;;;;2.87;1.37;;;;;;;19.36;55.80;96275.03;4420340;32;20180;-64
2023/10/08 12:51:11;;;;;;;4.90;1.33;;;;;;;19.35;55.77;96268.06;4420306;32;20200;-64
2023/10/08 12:53:37;;;;;;;2.57;1.23;;;;;;;19.36;55.54;96269.66;4409203;32;20176;-64
2023/10/08 12:56:15;;;;;;;11.77;0.97;;;;;;;19.37;55.83;96265.84;4420159;32;20195;-64
2023/10/08 12:58:44;;;;;;;1.47;1.07;;;;;;;19.38;55.39;96259.34;4417672;32;20225;-64